Charles Darwin — GDLS — position and weather

sailwx.info

Track history (hours):
 
Tides and Currents Weather Stations Pressure Air Temp Water Temp Dewpoint Dewpoint Depression Visibility Wind Speed Wind Dir Waves Ship Positions

Oceanographic research ship Charles Darwin (UK)

Detailed information on ship capabilities available from University of Delaware's Ocean Information Center.

Last reported at 2014-Jul-26 21:09 UTC. Time now 2014-Aug-02 06:35 UTC.
Position N 57°25' E 001°29'.

Length 70 m; draft 5.7 m.

Type: Ship. MMSI: 235011460.

Date/timePositionNaut miles runAvg speedWind from/ knotsBaromVisibWave heightAir tempDewpointWater temp
2014-Jul-26 21:09N 57°25' E 001°29'0 0.1
2014-Jul-26 20:23N 57°25' E 001°30'1 0.9
2014-Jul-26 19:12N 57°24' E 001°31'1 0.8
2014-Jul-26 18:31N 57°23' E 001°31'1 0.4
2014-Jul-26 16:30N 57°23' E 001°32'0 0.2
2014-Jul-26 15:26N 57°22' E 001°32'1 0.5
2014-Jul-26 14:26N 57°22' E 001°33'1 0.6
2014-Jul-26 13:29N 57°22' E 001°34'2 2.2
2014-Jul-26 12:33N 57°23' E 001°31'1 1.0
2014-Jul-26 11:19N 57°24' E 001°30'5 5.7
2014-Jul-26 10:30N 57°28' E 001°25'4 4.1
2014-Jul-26 09:30N 57°30' E 001°19'10 1.4
2014-Jul-26 02:11N 57°36' E 001°02'3 1.6
2014-Jul-26 00:33N 57°37' E 000°58'8 8.0
2014-Jul-25 23:33N 57°42' E 000°46'0 0.2
2014-Jul-25 22:33N 57°42' E 000°46'0 0.0
2014-Jul-25 21:33N 57°42' E 000°46'0 0.0
2014-Jul-25 20:21N 57°42' E 000°46'0 0.0
2014-Jul-25 19:33N 57°42' E 000°46'3 2.8
2014-Jul-25 18:33N 57°41' E 000°51'8 7.6
2014-Jul-25 17:32N 57°36' E 001°02'0 0.1
2014-Jul-25 16:33N 57°36' E 001°02'3 2.9
2014-Jul-25 15:32N 57°35' E 001°07'4 1.8
2014-Jul-25 13:33N 57°33' E 001°13'14 0.8
2014-Jul-24 18:33N 57°23' E 001°32'1 0.4
2014-Jul-24 17:06N 57°22' E 001°32'0 0.2
2014-Jul-24 16:07N 57°22' E 001°33'0 0.6
2014-Jul-24 15:32N 57°22' E 001°33'  
Track history (hours):
 
Tides and Currents Weather Stations Pressure Air Temp Water Temp Dewpoint Dewpoint Depression Visibility Wind Speed Wind Dir Waves Ship Positions

Oceanographic research ship Charles Darwin (UK)

Detailed information on ship capabilities available from University of Delaware's Ocean Information Center.

Last reported at 2014-Jul-26 21:09 UTC. Time now 2014-Aug-02 06:35 UTC.
Position N 57°25' E 001°29'.

Length 70 m; draft 5.7 m.

Type: Ship. MMSI: 235011460.

Date/timePositionNaut miles runAvg speedWind from/ knotsBaromVisibWave heightAir tempDewpointWater temp
2014-Jul-26 21:09N 57°25' E 001°29'0 0.1
2014-Jul-26 20:23N 57°25' E 001°30'1 0.9
2014-Jul-26 19:12N 57°24' E 001°31'1 0.8
2014-Jul-26 18:31N 57°23' E 001°31'1 0.4
2014-Jul-26 16:30N 57°23' E 001°32'0 0.2
2014-Jul-26 15:26N 57°22' E 001°32'1 0.5
2014-Jul-26 14:26N 57°22' E 001°33'1 0.6
2014-Jul-26 13:29N 57°22' E 001°34'2 2.2
2014-Jul-26 12:33N 57°23' E 001°31'1 1.0
2014-Jul-26 11:19N 57°24' E 001°30'5 5.7
2014-Jul-26 10:30N 57°28' E 001°25'4 4.1
2014-Jul-26 09:30N 57°30' E 001°19'10 1.4
2014-Jul-26 02:11N 57°36' E 001°02'3 1.6
2014-Jul-26 00:33N 57°37' E 000°58'8 8.0
2014-Jul-25 23:33N 57°42' E 000°46'0 0.2
2014-Jul-25 22:33N 57°42' E 000°46'0 0.0
2014-Jul-25 21:33N 57°42' E 000°46'0 0.0
2014-Jul-25 20:21N 57°42' E 000°46'0 0.0
2014-Jul-25 19:33N 57°42' E 000°46'3 2.8
2014-Jul-25 18:33N 57°41' E 000°51'8 7.6
2014-Jul-25 17:32N 57°36' E 001°02'0 0.1
2014-Jul-25 16:33N 57°36' E 001°02'3 2.9
2014-Jul-25 15:32N 57°35' E 001°07'4 1.8
2014-Jul-25 13:33N 57°33' E 001°13'14 0.8
2014-Jul-24 18:33N 57°23' E 001°32'1 0.4
2014-Jul-24 17:06N 57°22' E 001°32'0 0.2
2014-Jul-24 16:07N 57°22' E 001°33'0 0.6
2014-Jul-24 15:32N 57°22' E 001°33'  

Dump ship's entire track history